createdAt,value
2018-08-27T00:03:13.170Z,10.74
2018-08-27T00:14:15.229Z,11.02
2018-08-27T00:25:17.347Z,10.53
2018-08-27T00:36:18.487Z,10.75
2018-08-27T00:47:20.157Z,11.24
2018-08-27T00:58:20.963Z,10.91
2018-08-27T01:09:22.527Z,10.92
2018-08-27T01:20:24.997Z,11.28
2018-08-27T01:31:27.429Z,10.98
2018-08-27T01:42:29.375Z,10.47
2018-08-27T01:53:31.772Z,10.88
2018-08-27T02:04:34.421Z,10.60
2018-08-27T02:15:37.984Z,10.40
2018-08-27T02:26:38.597Z,9.93
2018-08-27T02:37:39.643Z,10.01
2018-08-27T02:48:41.185Z,9.71
2018-08-27T02:59:43.070Z,9.56
2018-08-27T03:10:44.748Z,9.61
2018-08-27T03:21:47.234Z,9.70
2018-08-27T03:32:48.029Z,9.83
2018-08-27T03:43:50.217Z,10.37
2018-08-27T03:54:52.281Z,10.06
2018-08-27T04:05:54.959Z,10.26
2018-08-27T04:16:57.567Z,10.37
2018-08-27T04:27:58.513Z,10.33
2018-08-27T04:39:00.302Z,10.23
2018-08-27T04:50:02.132Z,10.18
2018-08-27T05:01:04.100Z,10.31
2018-08-27T05:12:05.620Z,10.62
2018-08-27T05:23:08.328Z,10.73
2018-08-27T05:34:04.431Z,10.84
2018-08-27T05:45:07.573Z,11.11
2018-08-27T05:56:09.023Z,11.75
2018-08-27T06:07:08.133Z,12.34
2018-08-27T06:18:06.288Z,12.69
2018-08-27T06:29:07.802Z,13.14
2018-08-27T06:40:00.247Z,13.44
2018-08-27T06:51:03.134Z,14.17
2018-08-27T07:02:06.111Z,14.71
2018-08-27T07:12:46.465Z,14.95
2018-08-27T07:23:46.596Z,15.81
2018-08-27T07:34:49.947Z,16.16
2018-08-27T07:45:51.915Z,16.60
2018-08-27T07:56:54.396Z,16.96
2018-08-27T08:07:55.863Z,17.36
2018-08-27T08:18:58.083Z,17.44
2018-08-27T08:29:59.546Z,17.84
2018-08-27T08:40:54.766Z,17.91
2018-08-27T08:51:57.731Z,18.13
2018-08-27T09:02:59.558Z,18.34
2018-08-27T09:14:00.199Z,18.49
2018-08-27T09:25:02.919Z,18.98
2018-08-27T09:36:04.392Z,19.39
2018-08-27T09:47:05.983Z,19.53
2018-08-27T09:58:08.171Z,19.94
2018-08-27T10:09:10.936Z,20.30
2018-08-27T10:19:54.103Z,20.46
2018-08-27T10:30:37.829Z,21.11
2018-08-27T10:41:21.087Z,21.44
2018-08-27T10:52:05.442Z,21.63
2018-08-27T11:02:49.671Z,21.79
2018-08-27T11:13:32.765Z,22.67
2018-08-27T11:24:35.861Z,22.67
2018-08-27T11:35:37.977Z,23.61
2018-08-27T11:46:17.472Z,24.16
2018-08-27T11:57:01.165Z,24.59
2018-08-27T12:08:02.960Z,23.61
2018-08-27T12:19:04.064Z,23.34
2018-08-27T12:29:44.880Z,23.85
2018-08-27T12:40:27.205Z,23.68
2018-08-27T12:51:29.762Z,24.11
2018-08-27T13:02:11.711Z,24.38
2018-08-27T13:12:52.975Z,25.16
2018-08-27T13:23:38.427Z,27.64
2018-08-27T13:34:22.939Z,26.71
2018-08-27T13:45:09.892Z,26.50
2018-08-27T13:55:55.613Z,27.79
2018-08-27T14:06:40.413Z,28.14
2018-08-27T14:17:24.042Z,28.43
2018-08-27T14:28:09.287Z,27.79
2018-08-27T14:39:14.661Z,27.73
2018-08-27T14:50:00.030Z,28.36
2018-08-27T15:00:59.477Z,25.27
2018-08-27T15:12:02.095Z,24.20
2018-08-27T15:22:39.166Z,24.29
2018-08-27T15:33:29.052Z,24.59
2018-08-27T15:44:27.342Z,23.80
2018-08-27T15:55:24.868Z,23.58
2018-08-27T16:06:18.045Z,22.86
2018-08-27T16:17:17.019Z,22.04
2018-08-27T16:28:16.741Z,21.97
2018-08-27T16:39:17.588Z,21.91
2018-08-27T16:50:18.029Z,21.66
2018-08-27T17:01:18.550Z,20.89
2018-08-27T17:12:17.893Z,19.78
2018-08-27T17:23:15.474Z,18.83
2018-08-27T17:34:15.468Z,18.11
2018-08-27T17:45:12.721Z,17.73
2018-08-27T17:56:12.162Z,17.21
2018-08-27T18:07:09.843Z,17.00
2018-08-27T18:18:09.771Z,16.52
2018-08-27T18:29:08.051Z,16.18
2018-08-27T18:40:07.242Z,15.92
2018-08-27T18:51:07.373Z,15.60
2018-08-27T19:02:08.108Z,15.27
2018-08-27T19:13:06.460Z,15.09
2018-08-27T19:24:05.922Z,14.87
2018-08-27T19:35:05.639Z,14.69
2018-08-27T19:46:06.730Z,14.68
2018-08-27T19:57:09.329Z,14.54
2018-08-27T20:08:10.926Z,14.27
2018-08-27T20:19:12.402Z,14.23
2018-08-27T20:30:13.779Z,13.98
2018-08-27T20:41:15.382Z,14.05
2018-08-27T20:52:16.602Z,13.76
2018-08-27T21:03:16.927Z,13.74
2018-08-27T21:14:17.451Z,13.76
2018-08-27T21:25:16.085Z,13.53
2018-08-27T21:36:15.754Z,13.50
2018-08-27T21:47:16.273Z,13.38
2018-08-27T21:58:17.065Z,13.47
2018-08-27T22:09:18.160Z,13.22
2018-08-27T22:20:20.229Z,13.15
2018-08-27T22:31:21.585Z,13.06
2018-08-27T22:42:23.113Z,13.09
2018-08-27T22:53:24.274Z,13.00
2018-08-27T23:04:25.081Z,13.00
2018-08-27T23:15:26.997Z,12.77
2018-08-27T23:26:28.345Z,12.55
2018-08-27T23:37:28.075Z,12.59
2018-08-27T23:48:29.396Z,12.55
2018-08-27T23:59:31.085Z,12.63
